Martina — DA5124 — position and weather

sailwx.info

Track history (hours):
 
Tides and Currents Weather Stations Pressure Air Temp Water Temp Dewpoint Dewpoint Depression Visibility Wind Speed Wind Dir Waves Ship Positions

Martina

Last reported at 2017-Sep-16 13:15 UTC. Time now 2017-Nov-19 12:10 UTC.
Position N 39°39' W 074°05'.
Warning: this ship's position is months out of date.

Length 80 m; draft 2.5 m.

Type: Ship. MMSI: 211169770.

Date/timePositionNaut miles runAvg speedWind from/ knotsBaromVisibWave heightAir tempDewpointWater temp
2017-Sep-16 13:15N 39°39' W 074°05'2 6.3
2017-Sep-16 12:58N 39°41' W 074°05'3 6.2
2017-Sep-16 12:26N 39°44' W 074°04'2 5.0
2017-Sep-16 12:00N 39°46' W 074°07'0 0.9
2017-Sep-16 11:29N 39°45' W 074°07'0 0.0
2017-Sep-15 14:11N 39°45' W 074°07'0 0.0
2017-Sep-15 13:55N 39°45' W 074°07'0 0.0
2017-Sep-15 13:30N 39°45' W 074°07'0 0.0
2017-Sep-15 12:58N 39°45' W 074°07'0 0.0
2017-Sep-15 12:16N 39°45' W 074°07'0 0.0
2017-Sep-15 11:58N 39°45' W 074°07'0 0.0
2017-Sep-15 11:27N 39°45' W 074°07'0 0.0
2017-Sep-15 10:58N 39°45' W 074°07'0 0.0
2017-Sep-15 10:27N 39°45' W 074°07'0 0.0
2017-Sep-15 09:50N 39°45' W 074°07'0 0.0
2017-Sep-15 09:23N 39°45' W 074°07'0 0.0
2017-Sep-15 08:52N 39°45' W 074°07'0 0.0
2017-Sep-15 08:30N 39°45' W 074°07'0 0.0
2017-Sep-15 07:56N 39°45' W 074°07'0 0.0
2017-Sep-15 07:26N 39°45' W 074°07'0 0.0
2017-Sep-15 06:50N 39°45' W 074°07'0 0.0
2017-Sep-15 06:14N 39°45' W 074°07'0 0.0
2017-Sep-15 05:50N 39°45' W 074°07'0 0.0
2017-Sep-15 05:26N 39°45' W 074°07'0 0.0
2017-Sep-15 04:56N 39°45' W 074°07'0 0.0
2017-Sep-15 04:28N 39°45' W 074°07'0 0.0
2017-Sep-15 03:53N 39°45' W 074°07'0 0.0
2017-Sep-15 03:29N 39°45' W 074°07'0 0.0
2017-Sep-15 03:00N 39°45' W 074°07'0 0.0
2017-Sep-15 02:28N 39°45' W 074°07'0 0.0
2017-Sep-15 01:10N 39°45' W 074°07'0 0.0
2017-Sep-15 00:52N 39°45' W 074°07'0 0.0
2017-Sep-15 00:28N 39°45' W 074°07'0 0.0
2017-Sep-15 00:00N 39°45' W 074°07'0 0.0
2017-Sep-14 23:28N 39°45' W 074°07'0 0.0
2017-Sep-14 22:26N 39°45' W 074°07'0 0.0
2017-Sep-14 22:00N 39°45' W 074°07'0 0.0
2017-Sep-14 21:30N 39°45' W 074°07'1 2.2
2017-Sep-14 21:00N 39°46' W 074°06'52 1.9
2017-Sep-13 17:28N 40°38' W 074°03'2 4.1
2017-Sep-13 17:00N 40°40' W 074°03'2 4.1
2017-Sep-13 16:30N 40°42' W 074°02'2 3.1
2017-Sep-13 15:59N 40°43' W 074°01'2 3.7
2017-Sep-13 15:30N 40°42' W 074°02'1 0.8
2017-Sep-13 13:39N 40°42' W 074°04'0 0.0
2017-Sep-13 13:17N 40°42' W 074°04'0 0.0
2017-Sep-13 13:00N 40°42' W 074°04'0 0.0
2017-Sep-13 12:09N 40°42' W 074°04'0 0.0
2017-Sep-13 11:45N 40°42' W 074°04'0 0.0
2017-Sep-13 11:21N 40°42' W 074°04'0 0.0
2017-Sep-13 11:00N 40°42' W 074°04'0 0.0
2017-Sep-13 10:21N 40°42' W 074°04'0 0.0
2017-Sep-13 09:39N 40°42' W 074°04'0 0.0
2017-Sep-13 09:27N 40°42' W 074°04'0 0.0
2017-Sep-13 08:45N 40°42' W 074°04'0 0.0
2017-Sep-13 08:27N 40°42' W 074°04'0 0.0
2017-Sep-13 07:56N 40°42' W 074°04'0 0.0
2017-Sep-13 07:28N 40°42' W 074°04'0 0.0
2017-Sep-13 06:52N 40°42' W 074°04'0 0.0
2017-Sep-13 04:23N 40°42' W 074°04'0 0.0
2017-Sep-13 01:51N 40°42' W 074°04'0 0.0
2017-Sep-13 01:24N 40°42' W 074°04'0 0.0
2017-Sep-13 00:57N 40°42' W 074°04'0 0.1
2017-Sep-12 21:41N 40°42' W 074°04'1 4.4
2017-Sep-12 21:29N 40°41' W 074°03'  
Track history (hours):
 
Tides and Currents Weather Stations Pressure Air Temp Water Temp Dewpoint Dewpoint Depression Visibility Wind Speed Wind Dir Waves Ship Positions

Martina

Last reported at 2017-Sep-16 13:15 UTC. Time now 2017-Nov-19 12:10 UTC.
Position N 39°39' W 074°05'.
Warning: this ship's position is months out of date.

Length 80 m; draft 2.5 m.

Type: Ship. MMSI: 211169770.

Date/timePositionNaut miles runAvg speedWind from/ knotsBaromVisibWave heightAir tempDewpointWater temp
2017-Sep-16 13:15N 39°39' W 074°05'2 6.3
2017-Sep-16 12:58N 39°41' W 074°05'3 6.2
2017-Sep-16 12:26N 39°44' W 074°04'2 5.0
2017-Sep-16 12:00N 39°46' W 074°07'0 0.9
2017-Sep-16 11:29N 39°45' W 074°07'0 0.0
2017-Sep-15 14:11N 39°45' W 074°07'0 0.0
2017-Sep-15 13:55N 39°45' W 074°07'0 0.0
2017-Sep-15 13:30N 39°45' W 074°07'0 0.0
2017-Sep-15 12:58N 39°45' W 074°07'0 0.0
2017-Sep-15 12:16N 39°45' W 074°07'0 0.0
2017-Sep-15 11:58N 39°45' W 074°07'0 0.0
2017-Sep-15 11:27N 39°45' W 074°07'0 0.0
2017-Sep-15 10:58N 39°45' W 074°07'0 0.0
2017-Sep-15 10:27N 39°45' W 074°07'0 0.0
2017-Sep-15 09:50N 39°45' W 074°07'0 0.0
2017-Sep-15 09:23N 39°45' W 074°07'0 0.0
2017-Sep-15 08:52N 39°45' W 074°07'0 0.0
2017-Sep-15 08:30N 39°45' W 074°07'0 0.0
2017-Sep-15 07:56N 39°45' W 074°07'0 0.0
2017-Sep-15 07:26N 39°45' W 074°07'0 0.0
2017-Sep-15 06:50N 39°45' W 074°07'0 0.0
2017-Sep-15 06:14N 39°45' W 074°07'0 0.0
2017-Sep-15 05:50N 39°45' W 074°07'0 0.0
2017-Sep-15 05:26N 39°45' W 074°07'0 0.0
2017-Sep-15 04:56N 39°45' W 074°07'0 0.0
2017-Sep-15 04:28N 39°45' W 074°07'0 0.0
2017-Sep-15 03:53N 39°45' W 074°07'0 0.0
2017-Sep-15 03:29N 39°45' W 074°07'0 0.0
2017-Sep-15 03:00N 39°45' W 074°07'0 0.0
2017-Sep-15 02:28N 39°45' W 074°07'0 0.0
2017-Sep-15 01:10N 39°45' W 074°07'0 0.0
2017-Sep-15 00:52N 39°45' W 074°07'0 0.0
2017-Sep-15 00:28N 39°45' W 074°07'0 0.0
2017-Sep-15 00:00N 39°45' W 074°07'0 0.0
2017-Sep-14 23:28N 39°45' W 074°07'0 0.0
2017-Sep-14 22:26N 39°45' W 074°07'0 0.0
2017-Sep-14 22:00N 39°45' W 074°07'0 0.0
2017-Sep-14 21:30N 39°45' W 074°07'1 2.2
2017-Sep-14 21:00N 39°46' W 074°06'52 1.9
2017-Sep-13 17:28N 40°38' W 074°03'2 4.1
2017-Sep-13 17:00N 40°40' W 074°03'2 4.1
2017-Sep-13 16:30N 40°42' W 074°02'2 3.1
2017-Sep-13 15:59N 40°43' W 074°01'2 3.7
2017-Sep-13 15:30N 40°42' W 074°02'1 0.8
2017-Sep-13 13:39N 40°42' W 074°04'0 0.0
2017-Sep-13 13:17N 40°42' W 074°04'0 0.0
2017-Sep-13 13:00N 40°42' W 074°04'0 0.0
2017-Sep-13 12:09N 40°42' W 074°04'0 0.0
2017-Sep-13 11:45N 40°42' W 074°04'0 0.0
2017-Sep-13 11:21N 40°42' W 074°04'0 0.0
2017-Sep-13 11:00N 40°42' W 074°04'0 0.0
2017-Sep-13 10:21N 40°42' W 074°04'0 0.0
2017-Sep-13 09:39N 40°42' W 074°04'0 0.0
2017-Sep-13 09:27N 40°42' W 074°04'0 0.0
2017-Sep-13 08:45N 40°42' W 074°04'0 0.0
2017-Sep-13 08:27N 40°42' W 074°04'0 0.0
2017-Sep-13 07:56N 40°42' W 074°04'0 0.0
2017-Sep-13 07:28N 40°42' W 074°04'0 0.0
2017-Sep-13 06:52N 40°42' W 074°04'0 0.0
2017-Sep-13 04:23N 40°42' W 074°04'0 0.0
2017-Sep-13 01:51N 40°42' W 074°04'0 0.0
2017-Sep-13 01:24N 40°42' W 074°04'0 0.0
2017-Sep-13 00:57N 40°42' W 074°04'0 0.1
2017-Sep-12 21:41N 40°42' W 074°04'1 4.4
2017-Sep-12 21:29N 40°41' W 074°03'  

Dump ship's entire track history